createdAt,value
2023-05-13T00:01:07.830Z,29.30
2023-05-13T00:03:34.615Z,29.33
2023-05-13T00:06:03.798Z,31.97
2023-05-13T00:08:30.349Z,28.27
2023-05-13T00:10:56.965Z,27.97
2023-05-13T00:13:23.624Z,27.97
2023-05-13T00:15:50.227Z,27.57
2023-05-13T00:18:16.794Z,35.70
2023-05-13T00:20:43.315Z,24.73
2023-05-13T00:23:10.066Z,24.60
2023-05-13T00:25:37.749Z,32.90
2023-05-13T00:28:04.977Z,26.60
2023-05-13T00:30:31.546Z,28.63
2023-05-13T00:32:59.573Z,27.20
2023-05-13T00:35:26.952Z,23.60
2023-05-13T00:37:53.729Z,26.83
2023-05-13T00:40:21.252Z,26.70
2023-05-13T00:42:47.998Z,22.87
2023-05-13T00:45:14.521Z,26.20
2023-05-13T00:47:41.846Z,27.43
2023-05-13T00:50:08.821Z,24.70
2023-05-13T00:52:36.012Z,23.80
2023-05-13T00:55:03.205Z,28.20
2023-05-13T00:57:29.934Z,28.10
2023-05-13T00:59:56.499Z,31.00
2023-05-13T01:02:42.697Z,24.20
2023-05-13T01:05:12.550Z,23.23
2023-05-13T01:07:48.379Z,20.53
2023-05-13T01:10:21.037Z,27.10
2023-05-13T01:12:47.713Z,22.03
2023-05-13T01:15:15.268Z,25.63
2023-05-13T01:17:42.021Z,19.97
2023-05-13T01:20:08.664Z,21.57
2023-05-13T01:22:35.353Z,20.70
2023-05-13T01:25:02.046Z,26.43
2023-05-13T01:27:29.127Z,20.73
2023-05-13T01:29:56.035Z,21.20
2023-05-13T01:32:27.307Z,25.47
2023-05-13T01:34:54.597Z,26.93
2023-05-13T01:37:22.478Z,24.70
2023-05-13T01:39:49.357Z,23.83
2023-05-13T01:42:16.111Z,26.03
2023-05-13T02:16:41.326Z,24.03
2023-05-13T02:19:08.257Z,19.63
2023-05-13T02:21:35.068Z,18.47
2023-05-13T02:24:01.808Z,18.67
2023-05-13T02:26:29.014Z,19.17
2023-05-13T02:28:56.352Z,18.33
2023-05-13T02:31:22.963Z,21.73
2023-05-13T02:33:49.618Z,21.30
2023-05-13T02:36:16.209Z,20.67
2023-05-13T02:38:42.933Z,22.17
2023-05-13T02:41:10.820Z,19.10
2023-05-13T02:43:38.481Z,19.93
2023-05-13T02:46:06.419Z,19.43
2023-05-13T02:48:34.145Z,18.07
2023-05-13T02:51:01.572Z,21.50
2023-05-13T02:53:29.568Z,21.43
2023-05-13T02:56:00.691Z,21.00
2023-05-13T02:58:27.355Z,20.23
2023-05-13T03:00:55.046Z,19.87
2023-05-13T03:03:24.039Z,21.70
2023-05-13T03:05:50.808Z,20.67
2023-05-13T03:08:17.698Z,19.57
2023-05-13T03:10:44.370Z,20.13
2023-05-13T03:13:12.435Z,21.93
2023-05-13T03:15:41.484Z,21.20
2023-05-13T03:18:09.466Z,24.07
2023-05-13T03:20:36.122Z,23.10
2023-05-13T03:23:04.025Z,19.30
2023-05-13T03:25:31.976Z,19.47
2023-05-13T03:27:58.852Z,19.77
2023-05-13T03:30:29.006Z,18.30
2023-05-13T03:33:01.979Z,21.67
2023-05-13T03:35:28.974Z,19.67
2023-05-13T03:37:55.783Z,21.50
2023-05-13T03:40:22.697Z,16.87
2023-05-13T03:42:52.420Z,15.70
2023-05-13T03:45:22.377Z,18.30
2023-05-13T03:47:51.473Z,20.17
2023-05-13T03:50:19.935Z,16.77
2023-05-13T03:52:47.290Z,17.53
2023-05-13T03:55:15.762Z,21.20
2023-05-13T03:57:50.995Z,22.57
2023-05-13T04:00:20.374Z,18.97
2023-05-13T04:02:48.421Z,21.50
2023-05-13T04:05:15.410Z,21.33
2023-05-13T04:07:42.037Z,20.60
2023-05-13T04:10:08.821Z,21.67
2023-05-13T04:12:35.465Z,19.13
2023-05-13T04:15:02.018Z,21.07
2023-05-13T04:17:29.008Z,16.13
2023-05-13T04:19:56.827Z,17.63
2023-05-13T04:22:24.249Z,19.03
2023-05-13T04:24:56.400Z,16.57
2023-05-13T04:27:23.793Z,17.40
2023-05-13T04:29:52.959Z,16.73
2023-05-13T04:32:23.169Z,18.47
2023-05-13T04:34:53.120Z,16.17
2023-05-13T04:37:20.693Z,15.57
2023-05-13T04:39:49.276Z,19.43
2023-05-13T04:42:18.368Z,17.80
2023-05-13T04:44:45.118Z,21.60
2023-05-13T04:47:11.807Z,21.97
2023-05-13T04:49:38.393Z,25.73
2023-05-13T04:52:06.568Z,28.30
2023-05-13T04:54:37.061Z,28.13
2023-05-13T04:57:03.908Z,24.60
2023-05-13T04:59:31.090Z,19.67
2023-05-13T05:01:57.947Z,22.43
2023-05-13T05:04:25.040Z,23.83
2023-05-13T05:06:51.757Z,22.03
2023-05-13T05:09:18.994Z,23.73
2023-05-13T05:11:50.166Z,27.67
2023-05-13T05:14:18.163Z,19.40
2023-05-13T05:16:48.948Z,22.53
2023-05-13T05:19:15.751Z,22.90
2023-05-13T05:21:42.481Z,25.50
2023-05-13T05:24:09.603Z,25.63
2023-05-13T05:26:36.146Z,18.50
2023-05-13T05:29:02.999Z,15.10
2023-05-13T05:31:30.531Z,12.27
2023-05-13T05:34:01.735Z,12.53
2023-05-13T05:36:31.518Z,12.97
2023-05-13T05:38:58.208Z,21.43
2023-05-13T05:41:31.117Z,19.40
2023-05-13T05:43:58.940Z,17.00
2023-05-13T05:46:25.810Z,19.67
2023-05-13T05:48:52.893Z,14.07
2023-05-13T05:51:20.536Z,15.30
2023-05-13T05:53:47.676Z,14.70
2023-05-13T05:56:16.156Z,22.13
2023-05-13T05:58:44.655Z,13.60
2023-05-13T06:01:11.586Z,16.37
2023-05-13T06:03:38.455Z,19.40
2023-05-13T06:06:06.238Z,14.37
2023-05-13T06:08:33.718Z,15.50
2023-05-13T06:11:00.638Z,12.07
2023-05-13T06:13:28.596Z,8.40
2023-05-13T06:15:55.386Z,15.57
2023-05-13T06:18:22.870Z,11.00
2023-05-13T06:20:49.636Z,10.43
2023-05-13T06:23:18.368Z,11.87
2023-05-13T06:25:44.961Z,8.73
2023-05-13T06:28:12.204Z,6.13
2023-05-13T06:30:38.767Z,7.27
2023-05-13T06:33:05.603Z,5.30
2023-05-13T06:35:32.353Z,7.13
2023-05-13T06:38:01.932Z,5.30
2023-05-13T06:40:29.240Z,4.83
2023-05-13T06:42:56.972Z,4.17
2023-05-13T06:45:29.323Z,6.27
2023-05-13T06:47:56.589Z,6.33
2023-05-13T06:50:23.450Z,4.93
2023-05-13T06:52:50.374Z,3.53
2023-05-13T06:55:19.706Z,5.17
2023-05-13T06:57:47.357Z,6.50
2023-05-13T07:00:14.632Z,3.33
2023-05-13T07:02:42.299Z,4.67
2023-05-13T07:05:11.136Z,4.07
2023-05-13T07:07:38.270Z,4.93
2023-05-13T07:10:05.096Z,4.53
2023-05-13T07:12:31.860Z,6.03
2023-05-13T07:14:58.478Z,5.50
2023-05-13T07:17:25.136Z,3.93
2023-05-13T07:19:53.015Z,4.10
2023-05-13T07:22:19.600Z,4.03
2023-05-13T07:24:46.193Z,4.30
2023-05-13T07:27:12.794Z,5.43
2023-05-13T07:29:39.425Z,4.90
2023-05-13T07:32:06.246Z,4.47
2023-05-13T07:34:32.838Z,4.33
2023-05-13T07:36:59.497Z,4.30
2023-05-13T07:39:26.788Z,6.27
2023-05-13T07:41:53.648Z,3.60
2023-05-13T07:44:20.794Z,4.93
2023-05-13T07:46:51.023Z,5.57
2023-05-13T07:49:17.781Z,3.60
2023-05-13T07:51:44.457Z,6.03
2023-05-13T07:54:12.640Z,4.17
2023-05-13T07:56:44.327Z,4.37
2023-05-13T07:59:13.093Z,5.50
2023-05-13T08:01:39.951Z,6.00
2023-05-13T08:04:06.923Z,8.13
2023-05-13T08:06:33.793Z,6.10
2023-05-13T08:09:01.765Z,4.47
2023-05-13T08:11:28.943Z,5.20
2023-05-13T08:13:55.787Z,5.07
2023-05-13T08:16:22.773Z,5.50
2023-05-13T08:18:49.658Z,4.77
2023-05-13T08:21:16.270Z,7.50
2023-05-13T08:23:45.814Z,3.50
2023-05-13T08:26:13.535Z,3.80
2023-05-13T08:28:40.246Z,12.43
2023-05-13T08:31:07.703Z,6.57
2023-05-13T08:33:34.570Z,5.00
2023-05-13T08:36:01.281Z,3.40
2023-05-13T08:38:28.175Z,4.37
2023-05-13T08:40:55.998Z,2.17
2023-05-13T08:43:22.759Z,3.63
2023-05-13T08:45:50.728Z,3.30
2023-05-13T08:48:18.346Z,5.70
2023-05-13T08:50:45.403Z,7.27
2023-05-13T08:53:12.223Z,6.57
2023-05-13T08:55:39.901Z,3.70
2023-05-13T08:58:07.091Z,4.43
2023-05-13T09:00:34.608Z,5.07
2023-05-13T09:03:03.772Z,3.17
2023-05-13T09:05:31.998Z,4.93
2023-05-13T09:08:00.476Z,4.47
2023-05-13T09:10:27.054Z,4.27
2023-05-13T09:12:56.895Z,5.93
2023-05-13T09:15:26.845Z,3.90
2023-05-13T09:17:53.785Z,3.20
2023-05-13T09:20:21.107Z,2.30
2023-05-13T09:22:50.970Z,2.63
2023-05-13T09:25:18.036Z,4.37
2023-05-13T09:27:48.264Z,2.93
2023-05-13T09:30:14.933Z,4.83
2023-05-13T09:32:42.326Z,5.27
2023-05-13T09:35:20.010Z,2.67
2023-05-13T09:37:47.712Z,4.40
2023-05-13T09:40:15.175Z,5.27
2023-05-13T09:42:45.033Z,5.47
2023-05-13T09:45:14.798Z,5.40
2023-05-13T09:47:41.462Z,5.37
2023-05-13T09:50:09.036Z,3.43
2023-05-13T09:52:36.003Z,3.17
2023-05-13T09:55:04.890Z,3.30
2023-05-13T09:57:31.828Z,3.10
2023-05-13T10:00:00.053Z,6.47
2023-05-13T10:02:28.105Z,6.53
2023-05-13T10:04:57.041Z,5.63
2023-05-13T10:07:26.754Z,10.33
2023-05-13T10:09:54.570Z,2.57
2023-05-13T10:12:24.088Z,4.53
2023-05-13T10:14:52.224Z,4.30
2023-05-13T10:17:23.689Z,4.07
2023-05-13T10:19:51.696Z,5.10
2023-05-13T10:22:37.354Z,5.17
2023-05-13T10:25:05.437Z,12.07
2023-05-13T10:27:32.798Z,3.60
2023-05-13T10:30:02.393Z,4.07
2023-05-13T10:32:31.798Z,4.17
2023-05-13T10:34:58.547Z,5.60
2023-05-13T10:37:36.402Z,7.60
2023-05-13T10:40:12.250Z,3.30
2023-05-13T10:42:40.778Z,5.00
2023-05-13T10:45:07.855Z,7.07
2023-05-13T10:47:34.876Z,2.93
2023-05-13T10:50:05.611Z,3.20
2023-05-13T10:52:42.070Z,4.67
2023-05-13T10:55:11.292Z,3.43
2023-05-13T10:57:38.497Z,4.50
2023-05-13T11:00:18.076Z,2.90
2023-05-13T11:02:45.006Z,3.50
2023-05-13T11:05:19.083Z,3.73
2023-05-13T11:07:54.392Z,5.20
2023-05-13T11:10:24.941Z,5.70
2023-05-13T11:13:27.054Z,3.70
2023-05-13T11:15:54.981Z,4.83
2023-05-13T11:18:29.104Z,3.20
2023-05-13T11:20:57.094Z,5.67
2023-05-13T11:23:23.659Z,4.60
2023-05-13T11:26:11.277Z,5.63
2023-05-13T11:28:58.415Z,4.57
2023-05-13T11:31:26.016Z,4.07
2023-05-13T11:34:09.729Z,7.30
2023-05-13T11:36:40.518Z,3.47
2023-05-13T11:39:11.421Z,7.73
2023-05-13T11:41:42.409Z,7.07
2023-05-13T11:44:09.002Z,4.70
2023-05-13T11:46:36.743Z,9.50
2023-05-13T11:49:07.105Z,3.60
2023-05-13T11:51:34.168Z,5.97
2023-05-13T11:54:03.884Z,6.37
2023-05-13T11:56:32.349Z,3.40
2023-05-13T11:59:13.419Z,5.67
2023-05-13T12:01:40.907Z,3.53
2023-05-13T12:04:07.949Z,7.83
2023-05-13T12:06:34.809Z,7.07
2023-05-13T12:09:07.585Z,4.23
2023-05-13T12:11:35.006Z,4.83
2023-05-13T12:14:01.662Z,4.50
2023-05-13T12:16:28.460Z,3.40
2023-05-13T12:18:56.756Z,5.57
2023-05-13T12:21:23.503Z,5.07
2023-05-13T12:23:50.376Z,4.27
2023-05-13T12:26:17.101Z,4.73
2023-05-13T12:28:43.740Z,5.17
2023-05-13T12:31:15.686Z,3.30
2023-05-13T12:33:51.066Z,6.27
2023-05-13T12:36:48.155Z,3.33
2023-05-13T12:39:19.954Z,6.37
2023-05-13T12:41:50.639Z,4.40
2023-05-13T12:44:17.367Z,6.97
2023-05-13T12:46:55.792Z,3.80
2023-05-13T12:49:22.582Z,4.07
2023-05-13T12:51:50.135Z,5.27
2023-05-13T12:54:19.136Z,3.43
2023-05-13T12:56:45.990Z,4.70
2023-05-13T12:59:14.575Z,4.83
2023-05-13T13:01:43.005Z,4.07
2023-05-13T13:04:10.087Z,3.40
2023-05-13T13:06:36.850Z,5.17
2023-05-13T13:09:05.384Z,4.43
2023-05-13T13:11:31.931Z,5.60
2023-05-13T13:13:58.533Z,4.43
2023-05-13T13:16:25.338Z,3.67
2023-05-13T13:18:54.943Z,4.73
2023-05-13T13:21:22.738Z,5.57
2023-05-13T13:23:49.548Z,5.57
2023-05-13T13:26:16.359Z,4.87
2023-05-13T13:28:43.278Z,5.23
2023-05-13T13:31:11.996Z,6.53
2023-05-13T13:33:38.805Z,6.17
2023-05-13T13:36:05.759Z,9.60
2023-05-13T13:38:35.502Z,6.07
2023-05-13T13:41:02.389Z,7.30
2023-05-13T13:43:29.127Z,5.67
2023-05-13T13:45:55.911Z,9.27
2023-05-13T13:48:22.621Z,7.73
2023-05-13T13:50:53.126Z,6.90
2023-05-13T13:53:20.687Z,8.63
2023-05-13T13:55:47.520Z,5.13
2023-05-13T13:58:14.669Z,9.07
2023-05-13T14:00:41.536Z,7.73
2023-05-13T14:03:08.389Z,5.73
2023-05-13T14:05:35.015Z,9.20
2023-05-13T14:08:02.537Z,6.73
2023-05-13T14:10:29.237Z,6.23
2023-05-13T14:12:56.021Z,7.30
2023-05-13T14:15:24.364Z,4.17
2023-05-13T14:17:51.203Z,9.57
2023-05-13T14:20:17.860Z,10.10
2023-05-13T14:22:44.848Z,4.10
2023-05-13T14:25:11.619Z,6.63
2023-05-13T14:27:39.234Z,5.33
2023-05-13T14:30:06.881Z,7.23
2023-05-13T14:32:33.911Z,5.53
2023-05-13T14:35:00.731Z,8.77
2023-05-13T14:37:29.639Z,5.27
2023-05-13T14:39:56.217Z,7.77
2023-05-13T14:42:23.517Z,3.97
2023-05-13T14:44:50.196Z,6.47
2023-05-13T14:47:16.882Z,6.50
2023-05-13T14:49:43.740Z,7.20
2023-05-13T14:52:10.477Z,3.50
2023-05-13T14:54:38.184Z,7.53
2023-05-13T14:57:05.840Z,6.37
2023-05-13T14:59:34.172Z,6.87
2023-05-13T15:02:02.580Z,5.23
2023-05-13T15:04:29.435Z,4.47
2023-05-13T15:06:56.397Z,8.50
2023-05-13T15:09:23.046Z,7.00
2023-05-13T15:11:49.939Z,4.87
2023-05-13T15:14:21.971Z,6.53
2023-05-13T15:16:48.649Z,4.80
2023-05-13T15:19:15.799Z,6.87
2023-05-13T15:21:42.836Z,7.57
2023-05-13T15:24:09.733Z,8.77
2023-05-13T15:26:36.541Z,4.83
2023-05-13T15:29:03.377Z,4.90
2023-05-13T15:31:32.838Z,5.47
2023-05-13T15:34:00.138Z,5.70
2023-05-13T15:36:28.099Z,6.27
2023-05-13T15:38:54.853Z,8.17
2023-05-13T15:41:21.819Z,5.27
2023-05-13T15:43:52.206Z,5.03
2023-05-13T15:46:19.278Z,5.50
2023-05-13T15:48:46.365Z,6.37
2023-05-13T15:51:14.195Z,5.90
2023-05-13T15:53:40.941Z,4.23
2023-05-13T15:56:08.637Z,5.83
2023-05-13T15:58:35.297Z,5.60
2023-05-13T16:01:01.901Z,8.23
2023-05-13T16:03:28.628Z,7.30
2023-05-13T16:05:55.764Z,7.27
2023-05-13T16:08:22.481Z,6.43
2023-05-13T16:10:49.161Z,8.97
2023-05-13T16:13:15.759Z,8.03
2023-05-13T16:15:42.682Z,7.00
2023-05-13T16:18:09.434Z,10.80
2023-05-13T16:20:42.090Z,5.77
2023-05-13T16:23:08.754Z,6.97
2023-05-13T16:25:35.446Z,7.10
2023-05-13T16:31:55.689Z,9.20
2023-05-13T16:34:23.482Z,5.40
2023-05-13T16:36:51.151Z,9.40
2023-05-13T16:39:21.110Z,7.03
2023-05-13T16:41:47.712Z,5.13
2023-05-13T16:44:14.337Z,5.20
2023-05-13T16:46:40.959Z,4.63
2023-05-13T16:49:07.648Z,7.00
2023-05-13T16:51:34.479Z,6.57
2023-05-13T16:54:01.231Z,6.57
2023-05-13T16:56:27.900Z,6.50
2023-05-13T16:58:55.494Z,6.13
2023-05-13T17:01:22.192Z,8.13
2023-05-13T17:03:48.924Z,7.07
2023-05-13T17:06:15.815Z,4.73
2023-05-13T17:08:42.647Z,6.03
2023-05-13T17:11:16.098Z,5.77
2023-05-13T17:13:43.079Z,5.77
2023-05-13T17:16:11.033Z,5.93
2023-05-13T17:18:37.770Z,6.80
2023-05-13T17:21:04.584Z,4.57
2023-05-13T17:23:31.306Z,6.40
2023-05-13T17:25:57.875Z,10.97
2023-05-13T17:28:26.738Z,6.73
2023-05-13T17:30:53.490Z,4.97
2023-05-13T17:33:20.111Z,7.53
2023-05-13T17:35:46.679Z,6.60
2023-05-13T17:38:13.489Z,6.20
2023-05-13T17:40:40.281Z,8.50
2023-05-13T17:43:06.911Z,6.77
2023-05-13T17:45:40.306Z,8.47
2023-05-13T17:48:08.140Z,12.80
2023-05-13T17:50:35.483Z,21.20
2023-05-13T17:53:02.224Z,10.10
2023-05-13T17:55:28.825Z,11.43
2023-05-13T17:57:55.760Z,77.67
2023-05-13T18:00:23.777Z,31.47
2023-05-13T18:02:50.807Z,5.17
2023-05-13T18:05:17.571Z,4.37
2023-05-13T18:07:44.855Z,15.43
2023-05-13T18:10:11.893Z,6.50
2023-05-13T18:12:38.685Z,6.97
2023-05-13T18:15:06.020Z,36.07
2023-05-13T18:21:24.232Z,5.27
2023-05-13T18:23:52.764Z,4.80
2023-05-13T18:26:20.080Z,9.57
2023-05-13T18:28:46.932Z,7.50
2023-05-13T18:31:13.751Z,6.77
2023-05-13T18:33:41.626Z,5.47
2023-05-13T18:36:09.963Z,5.87
2023-05-13T18:38:36.930Z,7.73
2023-05-13T18:41:03.797Z,6.80
2023-05-13T18:43:35.056Z,7.47
2023-05-13T18:46:02.493Z,4.10
2023-05-13T18:48:29.379Z,6.77
2023-05-13T18:50:56.078Z,4.90
2023-05-13T18:53:22.780Z,7.53
2023-05-13T18:55:49.400Z,8.73
2023-05-13T18:58:16.951Z,8.23
2023-05-13T19:00:44.814Z,7.67
2023-05-13T19:03:11.573Z,21.17
2023-05-13T19:05:38.371Z,29.53
2023-05-13T19:08:05.488Z,119.67
2023-05-13T19:10:39.983Z,150.10
2023-05-13T19:13:08.648Z,122.20
2023-05-13T19:15:35.448Z,79.20
2023-05-13T19:18:02.499Z,57.53
2023-05-13T19:20:29.491Z,37.47
2023-05-13T19:22:56.248Z,15.67
2023-05-13T19:25:23.994Z,20.30
2023-05-13T19:27:50.705Z,19.27
2023-05-13T19:30:18.439Z,9.57
2023-05-13T19:32:45.014Z,12.47
2023-05-13T19:35:11.691Z,11.20
2023-05-13T19:37:40.462Z,18.53
2023-05-13T19:40:08.859Z,6.17
2023-05-13T19:42:35.556Z,9.23
2023-05-13T19:45:06.173Z,7.40
2023-05-13T19:47:34.039Z,6.70
2023-05-13T19:50:00.864Z,8.03
2023-05-13T19:52:27.708Z,6.37
2023-05-13T19:54:54.351Z,6.37
2023-05-13T19:57:23.108Z,9.60
2023-05-13T19:59:49.746Z,8.97
2023-05-13T20:02:17.826Z,6.73
2023-05-13T20:04:44.520Z,8.13
2023-05-13T20:07:11.180Z,6.60
2023-05-13T20:09:37.744Z,9.00
2023-05-13T20:12:04.798Z,8.83
2023-05-13T20:14:47.087Z,9.40
2023-05-13T20:17:20.945Z,7.33
2023-05-13T20:19:48.758Z,9.37
2023-05-13T20:22:16.522Z,8.67
2023-05-13T20:24:43.529Z,8.63
2023-05-13T20:27:16.636Z,11.13
2023-05-13T20:29:43.730Z,6.50
2023-05-13T20:32:10.406Z,12.17
2023-05-13T20:34:38.148Z,8.20
2023-05-13T20:37:05.086Z,7.43
2023-05-13T20:39:31.736Z,7.20
2023-05-13T20:41:58.311Z,8.30
2023-05-13T20:44:26.321Z,6.73
2023-05-13T20:46:52.931Z,5.80
2023-05-13T20:49:19.987Z,5.00
2023-05-13T20:51:47.642Z,5.73
2023-05-13T20:54:15.375Z,7.13
2023-05-13T20:56:41.971Z,7.73
2023-05-13T20:59:09.825Z,8.30
2023-05-13T21:01:36.508Z,4.87
2023-05-13T21:04:04.124Z,7.93
2023-05-13T21:06:30.738Z,6.77
2023-05-13T21:08:57.372Z,7.27
2023-05-13T21:11:23.981Z,8.47
2023-05-13T21:13:50.719Z,8.03
2023-05-13T21:16:17.369Z,7.77
2023-05-13T21:18:47.233Z,5.93
2023-05-13T21:21:13.860Z,4.10
2023-05-13T21:23:43.186Z,5.47
2023-05-13T21:26:10.230Z,8.07
2023-05-13T21:28:37.024Z,7.53
2023-05-13T21:31:04.020Z,4.37
2023-05-13T21:33:31.484Z,4.90
2023-05-13T21:35:58.040Z,3.50
2023-05-13T21:38:24.608Z,6.73
2023-05-13T21:40:51.610Z,4.27
2023-05-13T21:43:18.206Z,7.20
2023-05-13T21:45:49.714Z,3.77
2023-05-13T21:48:16.784Z,5.33
2023-05-13T21:50:43.414Z,7.83
2023-05-13T21:53:10.184Z,7.83
2023-05-13T21:55:37.005Z,6.37
2023-05-13T21:58:03.617Z,8.60
2023-05-13T22:00:31.788Z,8.87
2023-05-13T22:03:01.539Z,7.90
2023-05-13T22:05:28.702Z,13.03
2023-05-13T22:07:56.615Z,9.13
2023-05-13T22:10:23.411Z,7.43
2023-05-13T22:12:51.224Z,12.30
2023-05-13T22:15:17.751Z,12.50
2023-05-13T22:17:45.206Z,25.90
2023-05-13T22:20:12.306Z,11.00
2023-05-13T22:22:39.873Z,8.47
2023-05-13T22:25:07.264Z,14.53
2023-05-13T22:27:33.883Z,7.73
2023-05-13T22:30:02.777Z,10.97
2023-05-13T22:32:29.714Z,10.40
2023-05-13T22:34:56.868Z,9.07
2023-05-13T22:37:24.731Z,11.33
2023-05-13T22:39:51.551Z,6.80
2023-05-13T22:42:18.229Z,7.47
2023-05-13T22:44:45.122Z,4.83
2023-05-13T22:47:12.736Z,6.60
2023-05-13T22:49:39.357Z,8.33
2023-05-13T22:52:06.612Z,8.40
2023-05-13T22:54:33.220Z,10.23
2023-05-13T22:56:59.983Z,11.13
2023-05-13T22:59:28.460Z,14.50
2023-05-13T23:01:55.235Z,20.73
2023-05-13T23:04:21.989Z,13.63
2023-05-13T23:06:48.720Z,8.40
2023-05-13T23:09:15.213Z,8.43
2023-05-13T23:11:41.801Z,9.27
2023-05-13T23:14:08.989Z,12.17
2023-05-13T23:16:36.511Z,8.93
2023-05-13T23:19:03.920Z,10.40
2023-05-13T23:21:30.577Z,8.83
2023-05-13T23:23:57.947Z,10.00
2023-05-13T23:26:24.922Z,8.43
2023-05-13T23:28:51.518Z,12.93
2023-05-13T23:31:18.855Z,11.67
2023-05-13T23:33:45.516Z,9.20
2023-05-13T23:36:15.836Z,7.07
2023-05-13T23:38:42.397Z,10.50
2023-05-13T23:41:08.948Z,6.43
2023-05-13T23:43:35.546Z,8.67
2023-05-13T23:46:02.115Z,10.83
2023-05-13T23:48:28.756Z,8.40
2023-05-13T23:50:55.362Z,10.57
2023-05-13T23:53:21.914Z,8.67
2023-05-13T23:55:48.419Z,7.47
2023-05-13T23:58:15.014Z,9.47
